Time;durP1;ratioP1;P1;durP2;ratioP2;P2;SDS_P1;SDS_P2;PMS_P1;PMS_P2;Temp;Humidity;BMP_temperature;BMP_pressure;BME280_temperature;BME280_humidity;BME280_pressure;Samples;Min_cycle;Max_cycle;Signal;HPM_P1;HPM_P2
2022/07/23 00:00:41;;;;;;;10.00;7.10;;;;;;;24.00;51.97;100343.23;105810;1281;23845;-78
2022/07/23 00:03:07;;;;;;;10.60;7.80;;;;;;;23.99;51.94;100343.30;105489;1282;22541;-79
2022/07/23 00:05:34;;;;;;;8.50;7.70;;;;;;;23.97;52.22;100343.60;106432;1281;25313;-77
2022/07/23 00:08:03;;;;;;;8.30;7.50;;;;;;;23.96;52.31;100344.59;106732;1281;22535;-79
2022/07/23 00:10:32;;;;;;;8.30;7.50;;;;;;;23.93;52.58;100345.48;107223;1275;25277;-78
2022/07/23 00:12:59;;;;;;;8.90;8.00;;;;;;;23.91;52.62;100349.09;107360;1276;22617;-78
2022/07/23 00:15:26;;;;;;;9.40;8.30;;;;;;;23.89;52.75;100349.38;107584;1274;22535;-77
2022/07/23 00:17:53;;;;;;;9.50;7.80;;;;;;;23.87;52.73;100348.41;107251;1276;25334;-78
2022/07/23 00:20:20;;;;;;;11.60;7.90;;;;;;;23.85;52.84;100346.23;107200;1275;23208;-78
2022/07/23 00:22:51;;;;;;;8.40;7.40;;;;;;;23.83;52.92;100347.79;106577;1274;22865;-77
2022/07/23 00:25:19;;;;;;;7.30;6.60;;;;;;;23.80;53.09;100344.02;106391;1274;24344;-79
2022/07/23 00:27:57;;;;;;;9.30;8.00;;;;;;;23.78;53.27;100345.80;106186;1274;22553;-80
2022/07/23 00:30:24;;;;;;;9.90;8.20;;;;;;;23.74;53.48;100346.72;106283;1274;22705;-80
2022/07/23 00:32:56;;;;;;;11.70;8.40;;;;;;;23.72;53.36;100345.77;106251;1274;25407;-78
2022/07/23 00:35:29;;;;;;;8.60;7.80;;;;;;;23.69;53.56;100349.58;106214;1276;24234;-78
2022/07/23 00:37:58;;;;;;;10.80;8.00;;;;;;;23.64;53.70;100345.42;106243;1274;25471;-77
2022/07/23 00:40:25;;;;;;;10.30;7.70;;;;;;;23.62;53.64;100349.14;106356;1274;23994;-78
2022/07/23 00:42:53;;;;;;;9.00;7.60;;;;;;;23.59;53.92;100346.98;106303;1277;25606;-79
2022/07/23 00:45:20;;;;;;;9.40;7.50;;;;;;;23.56;54.17;100345.02;106548;1275;22552;-78
2022/07/23 00:47:47;;;;;;;8.80;8.00;;;;;;;23.54;54.31;100346.10;106294;1277;25923;-78
2022/07/23 00:50:14;;;;;;;8.40;7.50;;;;;;;23.49;54.37;100343.13;106625;1274;22556;-79
2022/07/23 00:52:42;;;;;;;8.60;7.70;;;;;;;23.44;54.38;100338.18;107288;1274;22676;-77
2022/07/23 00:55:10;;;;;;;15.10;7.70;;;;;;;23.44;54.64;100344.86;106791;1281;22586;-77
2022/07/23 00:57:38;;;;;;;9.50;7.60;;;;;;;23.41;54.84;100343.44;107015;1281;22576;-74
2022/07/23 01:00:08;;;;;;;8.70;7.70;;;;;;;23.40;54.74;100348.74;106081;1281;24200;-77
2022/07/23 01:02:37;;;;;;;10.60;8.20;;;;;;;23.38;54.95;100350.64;106048;1281;25291;-80
2022/07/23 01:05:06;;;;;;;10.30;8.20;;;;;;;23.35;54.89;100347.17;105844;1281;25362;-76
2022/07/23 01:07:33;;;;;;;8.70;7.80;;;;;;;23.34;54.97;100347.27;105744;1281;24289;-75
2022/07/23 01:10:02;;;;;;;12.10;8.10;;;;;;;23.32;55.02;100344.91;105660;1281;25289;-76
2022/07/23 01:12:29;;;;;;;9.70;8.70;;;;;;;23.29;55.19;100346.33;105467;1279;22567;-79
2022/07/23 01:14:59;;;;;;;9.10;7.20;;;;;;;23.28;55.11;100350.19;105957;1274;24316;-80
2022/07/23 01:17:28;;;;;;;9.50;8.20;;;;;;;23.25;55.51;100348.36;106187;1274;22832;-80
2022/07/23 01:19:54;;;;;;;8.60;7.60;;;;;;;23.23;55.67;100348.67;106015;1276;24227;-79
2022/07/23 01:22:23;;;;;;;11.20;7.70;;;;;;;23.20;55.61;100350.50;105596;1281;25401;-78
2022/07/23 01:24:50;;;;;;;9.80;8.90;;;;;;;23.17;55.89;100350.66;105708;1281;26583;-78
2022/07/23 01:27:21;;;;;;;9.20;8.10;;;;;;;23.15;56.08;100351.16;105439;1281;26521;-79
2022/07/23 01:29:54;;;;;;;11.00;8.70;;;;;;;23.12;56.17;100352.56;105469;1282;26772;-81
2022/07/23 01:32:21;;;;;;;10.40;9.30;;;;;;;23.09;56.18;100353.50;105269;1284;24447;-75
2022/07/23 01:34:48;;;;;;;9.60;8.50;;;;;;;23.06;56.23;100354.09;105624;1281;24055;-78
2022/07/23 01:37:15;;;;;;;10.30;9.20;;;;;;;23.01;56.64;100354.88;105407;1280;25369;-76
2022/07/23 01:39:43;;;;;;;10.00;8.90;;;;;;;22.96;56.63;100357.31;104882;1285;23099;-78
2022/07/23 01:42:10;;;;;;;10.90;9.10;;;;;;;22.93;56.88;100361.32;105491;1281;25342;-79
2022/07/23 01:44:39;;;;;;;11.00;8.90;;;;;;;22.91;57.03;100362.70;104874;1287;25235;-78
2022/07/23 01:47:10;;;;;;;10.90;9.30;;;;;;;22.89;57.25;100357.59;104745;1287;22553;-78
2022/07/23 01:49:37;;;;;;;13.10;9.50;;;;;;;22.87;57.38;100356.46;105097;1287;22557;-78
2022/07/23 01:52:43;;;;;;;10.60;8.80;;;;;;;22.85;57.57;100359.10;104264;1294;25234;-73
2022/07/23 01:55:10;;;;;;;12.90;10.00;;;;;;;22.83;57.60;100360.48;103964;1293;22573;-77
2022/07/23 01:57:47;;;;;;;10.80;9.70;;;;;;;22.75;57.60;100355.95;104626;1281;23273;-78
2022/07/23 02:00:17;;;;;;;10.40;9.40;;;;;;;22.72;57.77;100354.32;105279;1282;22535;-80
2022/07/23 02:02:45;;;;;;;11.40;9.80;;;;;;;22.70;57.95;100352.80;105318;1279;25291;-78
2022/07/23 02:05:12;;;;;;;12.50;9.90;;;;;;;22.68;58.01;100350.61;105250;1282;23180;-75
2022/07/23 02:07:38;;;;;;;10.80;9.70;;;;;;;22.65;57.83;100352.95;105170;1282;24593;-77
2022/07/23 02:10:06;;;;;;;11.30;10.10;;;;;;;22.54;57.93;100346.54;105031;1284;22575;-80
2022/07/23 02:12:33;;;;;;;13.20;9.90;;;;;;;22.47;57.84;100345.19;104989;1284;24299;-79
2022/07/23 02:15:00;;;;;;;14.60;9.30;;;;;;;22.39;57.77;100346.55;105060;1281;23754;-76
2022/07/23 02:17:27;;;;;;;11.30;9.70;;;;;;;22.34;57.70;100341.64;105760;1281;25238;-80
2022/07/23 02:19:54;;;;;;;13.50;10.20;;;;;;;22.30;57.88;100342.23;105414;1281;22886;-79
2022/07/23 02:22:21;;;;;;;11.10;10.00;;;;;;;22.24;57.91;100342.19;105318;1282;24062;-77
2022/07/23 02:24:48;;;;;;;11.80;9.20;;;;;;;22.23;57.95;100340.83;106314;1277;22689;-78
2022/07/23 02:27:15;;;;;;;10.20;9.20;;;;;;;22.20;58.13;100341.90;105659;1277;22871;-75
2022/07/23 02:29:42;;;;;;;10.80;9.70;;;;;;;22.15;58.08;100340.95;105764;1279;24886;-78
2022/07/23 02:32:09;;;;;;;13.00;10.50;;;;;;;22.08;58.11;100340.27;105800;1276;24432;-81
2022/07/23 02:34:36;;;;;;;14.00;9.80;;;;;;;21.98;58.23;100338.70;105747;1278;22577;-80
2022/07/23 02:37:03;;;;;;;11.40;9.00;;;;;;;21.92;58.52;100338.32;105733;1278;22532;-76
2022/07/23 02:39:30;;;;;;;13.60;10.30;;;;;;;21.84;58.72;100337.37;105712;1279;24098;-77
2022/07/23 02:41:58;;;;;;;15.60;10.90;;;;;;;21.77;58.97;100339.16;105867;1276;25440;-77
2022/07/23 02:44:26;;;;;;;12.10;10.80;;;;;;;21.77;59.19;100332.73;105483;1279;25354;-78
2022/07/23 02:46:52;;;;;;;13.70;10.60;;;;;;;21.75;59.25;100332.96;105796;1276;24317;-77
2022/07/23 02:49:20;;;;;;;11.70;10.50;;;;;;;21.70;59.31;100336.32;105721;1277;24234;-78
2022/07/23 02:51:47;;;;;;;13.40;10.60;;;;;;;21.67;59.42;100334.31;105721;1281;22578;-77
2022/07/23 02:54:15;;;;;;;12.10;10.80;;;;;;;21.68;59.57;100331.43;105898;1277;24529;-77
2022/07/23 02:56:42;;;;;;;11.20;10.00;;;;;;;21.69;59.44;100329.39;105852;1277;25437;-77
2022/07/23 02:59:11;;;;;;;12.50;10.70;;;;;;;21.61;59.71;100327.48;106049;1277;25435;-78
2022/07/23 03:01:38;;;;;;;12.20;10.60;;;;;;;21.57;59.93;100327.54;105911;1279;22545;-76
2022/07/23 03:04:05;;;;;;;11.50;10.10;;;;;;;21.49;59.99;100325.46;105743;1277;25241;-77
2022/07/23 03:06:33;;;;;;;13.70;10.80;;;;;;;21.48;60.25;100327.16;105674;1278;25419;-80
2022/07/23 03:09:00;;;;;;;12.70;10.80;;;;;;;21.50;60.29;100328.09;105692;1279;22553;-79
2022/07/23 03:11:28;;;;;;;12.30;9.90;;;;;;;21.50;60.39;100328.63;105855;1278;26508;-80
2022/07/23 03:13:55;;;;;;;12.70;10.00;;;;;;;21.51;60.40;100325.19;105981;1277;22548;-75
2022/07/23 03:16:22;;;;;;;11.90;9.20;;;;;;;21.55;60.57;100326.75;105871;1277;22538;-76
2022/07/23 03:18:49;;;;;;;11.30;10.20;;;;;;;21.61;60.46;100330.20;105890;1278;24621;-78
2022/07/23 03:21:17;;;;;;;11.40;10.30;;;;;;;21.67;60.54;100330.59;106040;1278;22561;-80
2022/07/23 03:23:44;;;;;;;12.20;10.90;;;;;;;21.72;60.58;100323.81;105901;1277;24251;-81
2022/07/23 03:26:11;;;;;;;13.90;11.20;;;;;;;21.74;60.43;100328.02;105888;1278;22551;-79
2022/07/23 03:28:38;;;;;;;12.60;11.10;;;;;;;21.72;60.37;100335.85;105865;1278;24609;-79
2022/07/23 03:31:05;;;;;;;12.30;11.00;;;;;;;21.69;60.36;100332.09;107402;1278;22666;-77
2022/07/23 03:33:32;;;;;;;11.80;10.60;;;;;;;21.68;60.51;100338.95;107476;1277;24280;-77
2022/07/23 03:35:59;;;;;;;17.40;12.00;;;;;;;21.65;60.59;100337.48;106763;1277;22570;-79
2022/07/23 03:38:30;;;;;;;11.90;10.80;;;;;;;21.59;60.85;100330.65;106747;1276;22489;-75
2022/07/23 03:40:57;;;;;;;13.00;11.30;;;;;;;21.55;60.76;100340.02;107619;1278;23686;-78
2022/07/23 03:43:25;;;;;;;12.60;11.30;;;;;;;21.52;61.04;100337.33;107235;1283;22572;-76
2022/07/23 03:45:52;;;;;;;15.30;11.30;;;;;;;21.47;61.10;100338.13;107313;1284;22686;-78
2022/07/23 03:48:19;;;;;;;13.50;10.60;;;;;;;21.48;61.27;100346.30;106033;1282;23538;-81
2022/07/23 03:50:46;;;;;;;11.70;10.40;;;;;;;21.50;61.35;100346.52;105243;1284;22976;-80
2022/07/23 03:53:13;;;;;;;13.40;11.80;;;;;;;21.47;61.37;100353.69;105460;1282;22784;-77
2022/07/23 03:55:40;;;;;;;14.90;10.30;;;;;;;21.45;61.64;100348.42;105173;1282;24250;-78
2022/07/23 03:58:07;;;;;;;12.00;10.80;;;;;;;21.45;61.62;100351.84;105316;1284;22569;-78
2022/07/23 04:00:34;;;;;;;12.10;10.80;;;;;;;21.43;61.74;100343.54;105299;1282;23937;-79
2022/07/23 04:03:02;;;;;;;15.00;11.10;;;;;;;21.41;61.93;100348.13;105748;1277;22546;-78
2022/07/23 04:05:29;;;;;;;12.10;10.10;;;;;;;21.39;61.93;100346.24;105878;1278;25937;-78
2022/07/23 04:08:04;;;;;;;13.60;10.60;;;;;;;21.38;61.92;100346.87;105882;1276;25397;-79
2022/07/23 04:10:31;;;;;;;11.80;10.60;;;;;;;21.38;62.09;100347.92;105777;1277;22575;-77
2022/07/23 04:12:58;;;;;;;11.90;10.80;;;;;;;21.37;61.91;100349.78;105771;1276;25256;-80
2022/07/23 04:15:25;;;;;;;13.30;11.50;;;;;;;21.31;61.99;100350.80;105753;1278;22561;-79
2022/07/23 04:17:52;;;;;;;13.50;12.10;;;;;;;21.28;62.14;100354.54;105702;1279;25329;-75
2022/07/23 04:20:22;;;;;;;13.00;10.90;;;;;;;21.27;62.21;100355.70;105714;1279;25321;-79
2022/07/23 04:22:53;;;;;;;15.40;11.50;;;;;;;21.29;62.27;100354.48;106388;1276;25248;-78
2022/07/23 04:25:21;;;;;;;13.30;11.80;;;;;;;21.29;62.31;100349.83;105399;1277;22560;-80
2022/07/23 04:27:48;;;;;;;13.50;12.10;;;;;;;21.25;62.52;100345.41;106080;1277;22482;-78
2022/07/23 04:30:16;;;;;;;14.00;12.00;;;;;;;21.29;62.54;100347.70;105642;1277;22531;-76
2022/07/23 04:32:43;;;;;;;14.20;12.80;;;;;;;21.32;62.56;100345.20;106064;1274;22697;-80
2022/07/23 04:35:20;;;;;;;25.60;13.50;;;;;;;21.34;62.53;100346.89;105902;1278;24389;-81
2022/07/23 04:37:49;;;;;;;14.30;12.70;;;;;;;21.32;62.61;100347.18;105857;1278;25403;-79
2022/07/23 04:40:17;;;;;;;13.50;12.20;;;;;;;21.34;62.67;100346.36;106109;1281;25333;-78
2022/07/23 04:42:44;;;;;;;18.80;12.30;;;;;;;21.39;62.54;100341.27;105945;1281;24251;-79
2022/07/23 04:45:11;;;;;;;15.70;13.40;;;;;;;21.43;62.62;100343.75;107505;1281;22627;-78
2022/07/23 04:47:40;;;;;;;16.60;13.00;;;;;;;21.48;62.65;100338.61;107367;1281;23853;-78
2022/07/23 04:50:07;;;;;;;13.80;11.40;;;;;;;21.52;62.33;100338.21;107570;1281;22572;-79
2022/07/23 04:52:34;;;;;;;15.90;12.00;;;;;;;21.54;62.34;100335.23;106840;1281;22630;-79
2022/07/23 04:55:02;;;;;;;14.30;12.10;;;;;;;21.63;62.34;100336.55;106619;1284;25289;-78
2022/07/23 04:57:29;;;;;;;19.00;13.00;;;;;;;21.68;62.21;100333.92;105639;1281;22547;-79
2022/07/23 04:59:56;;;;;;;15.00;13.30;;;;;;;21.69;62.04;100342.29;106310;1274;24290;-75
2022/07/23 05:02:24;;;;;;;17.50;12.30;;;;;;;21.74;62.21;100349.50;106065;1278;22652;-80
2022/07/23 05:04:50;;;;;;;16.50;13.50;;;;;;;21.82;62.15;100345.56;105988;1275;24288;-80
2022/07/23 05:07:17;;;;;;;16.60;13.50;;;;;;;21.87;61.98;100342.92;106228;1277;22528;-80
2022/07/23 05:09:44;;;;;;;18.10;13.90;;;;;;;21.91;61.94;100345.17;106142;1275;24281;-81
2022/07/23 05:12:11;;;;;;;16.70;12.80;;;;;;;21.99;61.86;100343.66;105879;1278;23113;-79
2022/07/23 05:14:41;;;;;;;16.10;12.40;;;;;;;22.03;61.69;100339.70;106392;1274;22626;-77
2022/07/23 05:17:08;;;;;;;14.70;12.20;;;;;;;22.08;61.63;100341.89;108018;1274;25206;-78
2022/07/23 05:19:35;;;;;;;20.00;12.40;;;;;;;22.11;61.71;100348.70;107677;1274;22473;-77
2022/07/23 05:22:02;;;;;;;13.50;12.10;;;;;;;22.16;61.52;100345.73;106754;1275;22478;-77
2022/07/23 05:24:30;;;;;;;16.80;12.00;;;;;;;22.22;61.49;100344.30;107984;1274;22541;-77
2022/07/23 05:26:57;;;;;;;12.70;11.00;;;;;;;22.26;61.07;100339.77;107466;1278;22480;-77
2022/07/23 05:29:25;;;;;;;12.70;11.40;;;;;;;22.31;60.96;100336.29;106985;1274;22551;-77
2022/07/23 05:31:52;;;;;;;13.00;11.40;;;;;;;22.32;60.79;100340.67;106790;1276;22632;-76
2022/07/23 05:34:20;;;;;;;12.90;11.40;;;;;;;22.38;60.95;100342.30;106432;1274;25537;-76
2022/07/23 05:36:48;;;;;;;13.20;11.20;;;;;;;22.44;60.74;100336.78;105829;1276;22546;-76
2022/07/23 05:39:16;;;;;;;16.20;11.70;;;;;;;22.48;60.61;100335.95;105907;1274;22538;-79
2022/07/23 05:41:43;;;;;;;15.40;11.70;;;;;;;22.53;60.39;100331.02;105905;1274;22547;-79
2022/07/23 05:44:10;;;;;;;15.10;11.20;;;;;;;22.58;60.54;100327.84;105883;1278;22827;-79
2022/07/23 05:46:39;;;;;;;13.50;11.10;;;;;;;22.64;60.42;100330.02;105779;1277;22627;-79
2022/07/23 05:49:07;;;;;;;13.90;11.30;;;;;;;22.71;60.29;100329.27;106165;1276;25354;-78
2022/07/23 05:51:53;;;;;;;14.80;10.40;;;;;;;22.78;60.23;100328.30;105787;1275;25448;-78
2022/07/23 05:54:29;;;;;;;13.60;10.80;;;;;;;22.82;60.05;100331.23;105706;1275;22654;-75
2022/07/23 05:56:56;;;;;;;13.10;10.40;;;;;;;22.86;60.18;100328.69;105718;1277;22732;-76
2022/07/23 05:59:24;;;;;;;15.70;9.90;;;;;;;22.91;59.83;100333.43;106009;1275;22613;-80
2022/07/23 06:01:51;;;;;;;18.40;10.50;;;;;;;22.96;59.90;100331.83;105981;1274;24255;-77
2022/07/23 06:04:18;;;;;;;12.40;10.00;;;;;;;23.01;59.75;100329.17;105555;1278;25200;-77
2022/07/23 06:06:55;;;;;;;21.10;11.00;;;;;;;23.07;59.49;100328.66;105725;1274;25306;-78
2022/07/23 06:09:21;;;;;;;11.30;10.10;;;;;;;23.12;59.36;100330.30;105858;1274;25207;-80
2022/07/23 06:11:48;;;;;;;13.70;10.10;;;;;;;23.19;58.97;100328.46;106147;1274;22548;-77
2022/07/23 06:14:15;;;;;;;14.40;10.10;;;;;;;23.25;59.10;100325.73;105640;1276;25252;-79
2022/07/23 06:16:51;;;;;;;11.30;10.10;;;;;;;23.33;59.03;100327.06;106335;1274;25243;-78
2022/07/23 06:19:18;;;;;;;13.40;9.70;;;;;;;23.39;59.00;100326.30;106150;1274;24324;-78
2022/07/23 06:21:45;;;;;;;13.50;10.00;;;;;;;23.46;58.97;100321.38;105965;1277;25392;-76
2022/07/23 06:24:15;;;;;;;18.60;9.80;;;;;;;23.54;58.84;100322.14;105938;1276;25244;-80
2022/07/23 06:26:42;;;;;;;21.80;10.40;;;;;;;23.63;58.60;100323.56;105812;1277;22587;-76
2022/07/23 06:29:09;;;;;;;13.50;9.20;;;;;;;23.70;58.29;100323.60;105998;1274;25300;-79
2022/07/23 06:31:36;;;;;;;16.20;9.40;;;;;;;23.78;58.07;100327.05;105926;1277;24238;-79
2022/07/23 06:34:03;;;;;;;13.90;9.60;;;;;;;23.83;57.58;100318.81;105801;1276;24339;-74
2022/07/23 06:36:30;;;;;;;18.70;10.80;;;;;;;23.91;57.38;100321.58;106113;1276;22781;-78
2022/07/23 06:38:57;;;;;;;11.20;8.60;;;;;;;23.96;57.21;100325.35;107159;1277;22545;-78
2022/07/23 06:41:24;;;;;;;13.40;7.90;;;;;;;24.01;57.07;100324.46;105803;1277;285690;-78
2022/07/23 06:43:51;;;;;;;10.30;9.00;;;;;;;24.09;56.76;100322.33;105890;1276;24032;-79
2022/07/23 06:46:21;;;;;;;13.80;8.30;;;;;;;24.16;56.88;100324.96;106047;1276;24533;-80
2022/07/23 06:48:48;;;;;;;12.40;8.10;;;;;;;24.23;56.53;100327.22;106082;1277;25168;-80
2022/07/23 06:51:16;;;;;;;12.10;8.60;;;;;;;24.30;56.44;100327.11;106021;1276;22642;-78
2022/07/23 06:53:42;;;;;;;13.30;8.50;;;;;;;24.36;56.20;100322.73;105935;1277;23932;-78
2022/07/23 06:56:09;;;;;;;9.10;8.30;;;;;;;24.42;56.27;100322.65;105885;1276;22770;-78
2022/07/23 06:58:38;;;;;;;8.70;7.80;;;;;;;24.48;55.54;100317.55;106017;1277;22601;-78
2022/07/23 07:01:05;;;;;;;13.80;8.10;;;;;;;24.54;55.32;100316.44;106027;1276;22655;-79
2022/07/23 07:03:33;;;;;;;11.80;7.90;;;;;;;24.59;55.11;100316.83;106023;1277;25259;-79
2022/07/23 07:05:59;;;;;;;10.40;7.20;;;;;;;24.64;54.93;100314.86;106076;1276;25243;-78
2022/07/23 07:08:26;;;;;;;8.20;7.30;;;;;;;24.69;55.01;100318.25;106436;1276;22554;-79
2022/07/23 07:10:53;;;;;;;11.20;8.00;;;;;;;24.75;54.86;100313.01;106085;1276;22695;-77
2022/07/23 07:13:20;;;;;;;8.80;8.00;;;;;;;24.81;54.73;100309.94;106111;1276;22548;-78
2022/07/23 07:15:47;;;;;;;11.00;7.60;;;;;;;24.88;54.70;100309.44;105914;1277;22534;-77
2022/07/23 07:18:14;;;;;;;10.70;8.00;;;;;;;24.96;54.67;100309.40;105914;1276;22574;-77
2022/07/23 07:20:40;;;;;;;9.50;7.50;;;;;;;25.06;54.59;100310.14;105932;1276;25443;-77
2022/07/23 07:23:07;;;;;;;9.80;7.40;;;;;;;25.15;54.31;100308.86;106030;1276;22558;-74
2022/07/23 07:25:35;;;;;;;7.50;6.80;;;;;;;25.26;53.68;100304.61;105916;1276;24238;-75
2022/07/23 07:28:02;;;;;;;7.90;6.80;;;;;;;25.37;53.63;100302.56;106025;1277;22541;-80
2022/07/23 07:30:29;;;;;;;9.40;7.20;;;;;;;25.42;53.00;100301.99;105980;1274;26510;-80
2022/07/23 07:33:00;;;;;;;7.20;6.50;;;;;;;25.46;52.42;100294.84;105997;1277;22544;-79
2022/07/23 07:35:27;;;;;;;8.90;7.50;;;;;;;25.52;52.26;100297.67;105884;1274;25319;-82
2022/07/23 07:37:54;;;;;;;8.40;7.60;;;;;;;25.58;52.25;100297.80;105871;1279;22624;-79
2022/07/23 07:40:21;;;;;;;9.30;7.10;;;;;;;25.61;52.03;100295.04;105406;1281;23959;-78
2022/07/23 07:42:54;;;;;;;8.10;7.20;;;;;;;25.70;51.67;100291.92;105954;1281;24558;-79
2022/07/23 07:45:21;;;;;;;7.00;6.40;;;;;;;25.76;51.30;100293.65;105665;1281;25454;-79
2022/07/23 07:47:49;;;;;;;8.00;7.20;;;;;;;25.82;51.25;100291.52;105680;1281;22572;-79
2022/07/23 07:50:16;;;;;;;12.60;6.80;;;;;;;25.87;51.31;100293.50;105753;1281;24242;-78
2022/07/23 07:52:42;;;;;;;10.10;7.00;;;;;;;25.92;51.16;100293.54;105722;1281;22611;-80
2022/07/23 07:55:10;;;;;;;8.60;7.20;;;;;;;26.01;50.92;100295.39;105355;1282;23401;-79
2022/07/23 07:57:37;;;;;;;8.60;7.10;;;;;;;26.06;50.64;100291.88;106124;1274;25313;-79
2022/07/23 08:00:07;;;;;;;7.60;6.90;;;;;;;26.17;50.67;100298.88;105844;1275;22561;-80
2022/07/23 08:02:42;;;;;;;11.20;7.30;;;;;;;26.25;50.45;100301.85;106017;1274;25294;-78
2022/07/23 08:05:10;;;;;;;7.30;6.70;;;;;;;26.32;50.29;100304.95;105936;1277;25252;-79
2022/07/23 08:07:39;;;;;;;9.50;6.30;;;;;;;26.38;50.16;100307.23;105995;1277;25411;-79
2022/07/23 08:10:08;;;;;;;7.10;6.50;;;;;;;26.47;50.11;100305.10;105958;1277;22592;-79
2022/07/23 08:12:44;;;;;;;8.10;6.60;;;;;;;26.54;49.90;100303.09;105895;1274;22740;-79
2022/07/23 08:15:13;;;;;;;7.40;6.40;;;;;;;26.65;49.68;100305.27;105977;1276;25250;-76
2022/07/23 08:17:42;;;;;;;10.00;6.00;;;;;;;26.82;49.38;100307.44;106317;1274;25251;-78
2022/07/23 08:20:12;;;;;;;9.80;6.60;;;;;;;26.97;49.20;100303.01;107203;1274;22542;-78
2022/07/23 08:22:50;;;;;;;8.80;6.60;;;;;;;27.11;48.80;100310.20;106789;1274;23951;-77
2022/07/23 08:25:23;;;;;;;7.80;6.90;;;;;;;27.19;48.13;100305.03;106406;1276;22536;-77
2022/07/23 08:27:51;;;;;;;7.20;6.50;;;;;;;27.22;47.73;100307.74;106578;1275;22731;-79
2022/07/23 08:30:19;;;;;;;6.70;6.20;;;;;;;27.28;47.72;100309.94;106794;1275;22506;-77
2022/07/23 08:33:04;;;;;;;7.40;6.60;;;;;;;27.36;47.55;100309.82;106543;1274;24224;-79
2022/07/23 08:35:36;;;;;;;8.50;6.30;;;;;;;27.44;47.22;100305.42;106265;1277;25307;-77
2022/07/23 08:38:06;;;;;;;7.70;7.00;;;;;;;27.52;47.02;100303.48;106367;1277;22707;-78
2022/07/23 08:40:36;;;;;;;8.00;6.10;;;;;;;27.62;47.01;100304.88;107203;1274;22743;-78
2022/07/23 08:43:12;;;;;;;9.20;6.90;;;;;;;27.72;46.64;100306.23;106990;1274;23939;-78
2022/07/23 08:45:42;;;;;;;9.40;6.80;;;;;;;27.81;46.29;100309.66;107476;1273;26538;-76
2022/07/23 08:48:16;;;;;;;7.30;6.10;;;;;;;27.84;46.11;100311.63;107487;1274;22641;-75
2022/07/23 08:50:46;;;;;;;9.00;6.30;;;;;;;27.90;46.04;100307.48;106946;1274;22584;-74
2022/07/23 08:53:15;;;;;;;7.10;6.30;;;;;;;27.94;45.75;100301.48;106640;1274;22534;-78
2022/07/23 08:55:55;;;;;;;6.60;6.10;;;;;;;28.02;45.23;100306.50;106039;1276;22747;-77
2022/07/23 08:58:23;;;;;;;7.60;6.60;;;;;;;28.03;44.92;100306.39;105903;1275;22589;-75
2022/07/23 09:00:56;;;;;;;6.20;5.70;;;;;;;28.05;44.97;100302.26;106075;1278;25268;-77
2022/07/23 09:03:27;;;;;;;6.60;6.00;;;;;;;28.11;44.86;100296.86;106018;1275;22532;-80
2022/07/23 09:05:56;;;;;;;5.70;5.20;;;;;;;28.21;44.62;100293.83;106002;1274;25450;-77
2022/07/23 09:08:36;;;;;;;9.30;6.80;;;;;;;28.38;44.53;100296.95;105933;1276;26500;-79
2022/07/23 09:11:05;;;;;;;6.40;5.80;;;;;;;28.46;44.17;100297.70;106044;1276;22541;-75
2022/07/23 09:13:48;;;;;;;6.20;5.60;;;;;;;28.54;43.83;100293.06;105984;1276;25378;-77
2022/07/23 09:16:18;;;;;;;6.70;5.90;;;;;;;28.61;43.99;100292.60;106034;1276;22536;-77
2022/07/23 09:19:14;;;;;;;7.20;6.20;;;;;;;28.71;43.51;100293.20;105927;1275;23741;-77
2022/07/23 09:21:42;;;;;;;7.40;6.40;;;;;;;28.76;43.05;100289.70;105889;1276;22708;-77
2022/07/23 09:24:12;;;;;;;7.00;6.40;;;;;;;28.77;43.10;100293.23;105687;1276;25299;-79
2022/07/23 09:26:41;;;;;;;6.30;5.70;;;;;;;28.91;43.26;100293.09;105515;1281;22556;-78
2022/07/23 09:29:10;;;;;;;6.40;5.80;;;;;;;28.97;42.44;100297.34;105732;1281;24292;-78
2022/07/23 09:31:50;;;;;;;6.20;5.60;;;;;;;28.99;42.06;100293.48;105322;1281;24326;-77
2022/07/23 09:34:24;;;;;;;6.30;5.70;;;;;;;29.06;41.44;100294.89;105439;1281;24225;-75
2022/07/23 09:36:54;;;;;;;7.70;5.40;;;;;;;29.13;41.27;100291.89;105547;1281;25677;-78
2022/07/23 09:39:29;;;;;;;6.50;5.90;;;;;;;29.23;40.65;100289.59;105338;1281;22614;-77
2022/07/23 09:41:56;;;;;;;7.30;5.40;;;;;;;29.28;40.23;100285.92;105425;1281;22678;-77
2022/07/23 09:44:23;;;;;;;9.60;5.70;;;;;;;29.29;40.24;100283.80;105760;1284;24034;-77
2022/07/23 09:46:59;;;;;;;6.70;6.00;;;;;;;29.32;40.39;100284.63;105371;1284;26531;-80
2022/07/23 09:49:26;;;;;;;6.00;5.30;;;;;;;29.40;40.70;100275.38;105363;1284;25245;-78
2022/07/23 09:51:56;;;;;;;7.20;5.50;;;;;;;29.58;40.96;100275.42;104582;1287;22681;-78
2022/07/23 09:54:26;;;;;;;6.90;5.80;;;;;;;29.73;40.59;100264.47;104842;1287;24232;-78
2022/07/23 09:56:55;;;;;;;6.40;5.80;;;;;;;29.91;40.65;100255.77;104775;1287;22915;-80
2022/07/23 09:59:28;;;;;;;7.50;5.50;;;;;;;30.15;40.31;100255.91;104663;1287;22567;-77
2022/07/23 10:01:58;;;;;;;8.80;5.30;;;;;;;30.27;39.90;100261.32;104755;1281;25231;-79
2022/07/23 10:04:28;;;;;;;6.40;5.80;;;;;;;30.34;39.41;100263.05;105442;1282;22555;-78
2022/07/23 10:07:17;;;;;;;6.90;5.40;;;;;;;30.39;39.15;100262.70;105365;1281;25459;-77
2022/07/23 10:10:04;;;;;;;5.80;5.30;;;;;;;30.30;38.58;100261.52;105694;1278;24221;-77
2022/07/23 10:15:47;;;;;;;7.40;5.60;;;;;;;30.37;38.79;100255.28;105524;1278;22728;-78
2022/07/23 10:18:14;;;;;;;7.80;5.20;;;;;;;30.48;38.59;100256.99;107144;1276;22531;-78
2022/07/23 10:20:42;;;;;;;5.80;5.30;;;;;;;30.62;38.20;100257.21;105846;1276;22538;-79
2022/07/23 10:23:30;;;;;;;6.50;5.80;;;;;;;30.72;38.08;100259.55;106033;1277;22599;-79
2022/07/23 10:26:03;;;;;;;5.20;4.70;;;;;;;30.79;37.46;100253.15;105863;1277;24265;-78
2022/07/23 10:28:59;;;;;;;6.50;4.80;;;;;;;30.83;37.43;100255.06;105906;1276;22706;-77
2022/07/23 10:31:34;;;;;;;8.00;5.50;;;;;;;30.89;37.17;100259.25;105979;1276;24222;-78
2022/07/23 10:34:30;;;;;;;9.30;5.70;;;;;;;30.91;37.07;100253.27;105911;1276;22713;-83
2022/07/23 10:37:19;;;;;;;5.50;5.00;;;;;;;31.04;37.09;100251.08;106070;1276;22541;-79
2022/07/23 10:39:48;;;;;;;5.40;4.90;;;;;;;31.19;36.41;100255.42;105965;1276;22556;-80
2022/07/23 10:42:17;;;;;;;5.40;4.80;;;;;;;31.19;36.27;100253.03;105993;1277;22812;-77
2022/07/23 10:44:47;;;;;;;7.60;5.60;;;;;;;31.25;36.33;100247.85;105937;1276;24247;-77
2022/07/23 10:50:36;;;;;;;5.60;5.10;;;;;;;31.55;35.47;100245.52;105834;1274;24734;-79
2022/07/23 10:53:08;;;;;;;5.30;4.80;;;;;;;31.70;35.46;100248.52;105946;1278;24345;-77
2022/07/23 10:55:55;;;;;;;10.50;5.30;;;;;;;31.85;35.37;100248.15;105908;1276;22548;-79
2022/07/23 10:58:47;;;;;;;6.50;4.90;;;;;;;31.81;34.62;100254.91;105510;1284;25517;-78
2022/07/23 11:01:34;;;;;;;6.20;5.30;;;;;;;31.80;34.88;100248.34;105417;1284;25350;-79
2022/07/23 11:04:04;;;;;;;8.80;4.80;;;;;;;31.97;34.78;100250.95;105253;1284;24309;-78
2022/07/23 11:07:03;;;;;;;5.40;4.90;;;;;;;32.15;34.23;100252.79;105247;1284;25266;-81
2022/07/23 11:09:42;;;;;;;6.20;4.70;;;;;;;32.18;34.22;100249.05;105442;1284;25340;-75
2022/07/23 11:12:20;;;;;;;5.50;4.70;;;;;;;32.34;34.42;100244.47;105860;1283;22582;-76
2022/07/23 11:15:02;;;;;;;7.50;5.00;;;;;;;32.55;33.89;100241.71;105652;1284;25262;-78
2022/07/23 11:17:37;;;;;;;5.00;4.60;;;;;;;32.66;33.23;100242.05;105610;1284;22945;-77
2022/07/23 11:20:12;;;;;;;7.10;5.40;;;;;;;32.59;33.01;100244.14;105393;1285;25235;-78
2022/07/23 11:22:42;;;;;;;4.90;4.40;;;;;;;32.61;33.15;100245.38;105308;1286;22556;-77
2022/07/23 11:25:30;;;;;;;5.30;4.90;;;;;;;32.56;33.08;100244.19;105163;1287;25454;-78
2022/07/23 11:28:15;;;;;;;6.30;4.30;;;;;;;32.70;33.35;100247.30;105135;1287;25414;-79